Time;durP1;ratioP1;P1;durP2;ratioP2;P2;SDS_P1;SDS_P2;PMS_P1;PMS_P2;Temp;Humidity;BMP_temperature;BMP_pressure;BME280_temperature;BME280_humidity;BME280_pressure;Samples;Min_cycle;Max_cycle;Signal;HPM_P1;HPM_P2
2022/10/13 00:00:16;;;;;;;15.85;8.27;;;12.00;91.90;;;;;;5016926;28;20029;-80
2022/10/13 00:02:42;;;;;;;14.57;7.93;;;12.00;91.90;;;;;;5017019;28;20060;-80
2022/10/13 00:05:08;;;;;;;18.58;9.82;;;12.10;92.00;;;;;;5017574;28;20029;-80
2022/10/13 00:07:33;;;;;;;15.80;8.32;;;12.10;91.90;;;;;;5000508;28;20091;-80
2022/10/13 00:09:59;;;;;;;15.48;8.95;;;12.10;91.90;;;;;;4984248;28;20025;-79
2022/10/13 00:12:24;;;;;;;15.80;8.15;;;12.20;92.00;;;;;;4993925;28;20109;-80
2022/10/13 00:14:51;;;;;;;15.73;8.68;;;12.30;92.00;;;;;;5010451;28;20100;-79
2022/10/13 00:17:17;;;;;;;15.60;8.68;;;12.20;91.90;;;;;;4993655;28;20470;-79
2022/10/13 00:19:42;;;;;;;17.15;9.57;;;12.30;91.90;;;;;;4995000;28;20037;-80
2022/10/13 00:22:08;;;;;;;13.23;7.43;;;12.20;91.90;;;;;;5010015;28;20065;-80
2022/10/13 00:24:34;;;;;;;20.35;8.65;;;12.20;91.90;;;;;;4977364;28;20030;-79
2022/10/13 00:26:59;;;;;;;17.70;8.85;;;12.20;91.90;;;;;;4977436;28;20074;-80
2022/10/13 00:29:25;;;;;;;18.00;8.73;;;12.30;92.00;;;;;;5009932;28;20027;-79
2022/10/13 00:31:50;;;;;;;17.73;9.00;;;12.30;91.90;;;;;;4994741;28;20065;-79
2022/10/13 00:34:16;;;;;;;15.30;9.07;;;12.30;92.00;;;;;;5009866;28;20041;-80
2022/10/13 00:36:42;;;;;;;18.17;9.75;;;12.30;92.00;;;;;;4993456;28;20034;-80
2022/10/13 00:39:07;;;;;;;14.20;8.57;;;12.30;92.00;;;;;;4993698;28;20034;-79
2022/10/13 00:41:33;;;;;;;16.73;9.27;;;12.30;92.10;;;;;;4993246;28;20391;-79
2022/10/13 00:44:01;;;;;;;14.85;9.05;;;12.40;92.20;;;;;;4994746;28;20410;-80
2022/10/13 00:46:33;;;;;;;17.63;9.68;;;12.20;92.20;;;;;;4993264;28;20030;-79
2022/10/13 00:49:05;;;;;;;15.35;8.70;;;12.40;92.40;;;;;;4993286;28;20025;-80
2022/10/13 00:51:34;;;;;;;14.45;8.10;;;12.40;92.40;;;;;;4993546;28;20030;-80
2022/10/13 00:54:02;;;;;;;15.45;8.65;;;12.40;92.50;;;;;;4994398;28;20027;-79
2022/10/13 00:56:28;;;;;;;16.55;8.13;;;12.40;92.60;;;;;;4992402;28;20076;-80
2022/10/13 00:58:55;;;;;;;14.68;8.25;;;12.40;92.60;;;;;;4992821;28;20057;-80
2022/10/13 01:01:21;;;;;;;14.65;7.50;;;12.40;92.70;;;;;;4993051;28;20030;-79
2022/10/13 01:03:47;;;;;;;16.08;8.65;;;12.40;92.70;;;;;;5009316;28;20414;-80
2022/10/13 01:06:13;;;;;;;15.63;8.55;;;12.50;92.70;;;;;;4993042;28;20031;-80
2022/10/13 01:08:39;;;;;;;15.48;9.40;;;12.50;92.80;;;;;;4992907;28;20506;-80
2022/10/13 01:11:51;;;;;;;14.38;8.02;;;12.50;92.80;;;;;;4992686;28;20141;-79
2022/10/13 01:14:46;;;;;;;15.77;9.00;;;12.50;93.20;;;;;;4975063;28;20041;-80
2022/10/13 01:17:19;;;;;;;;;;;12.60;93.00;;;;;;4993154;28;20029;-80
2022/10/13 01:20:22;;;;;;;16.25;7.93;;;12.50;93.00;;;;;;4992988;28;20334;-79
2022/10/13 01:23:16;;;;;;;19.15;9.27;;;12.50;93.00;;;;;;5009075;28;20395;-79
2022/10/13 01:26:08;;;;;;;17.58;8.13;;;12.50;93.00;;;;;;4993889;28;20030;-79
2022/10/13 01:28:34;;;;;;;17.95;8.55;;;12.50;93.10;;;;;;4992627;28;20133;-79
2022/10/13 01:31:09;;;;;;;17.00;9.43;;;12.60;93.20;;;;;;5008873;28;20129;-79
2022/10/13 01:34:08;;;;;;;16.55;8.65;;;12.60;93.30;;;;;;5008944;28;20100;-79
2022/10/13 01:36:46;;;;;;;16.02;8.95;;;12.60;93.40;;;;;;4992688;28;20501;-79
2022/10/13 01:39:32;;;;;;;16.65;9.05;;;12.60;93.50;;;;;;4992954;28;20058;-78
2022/10/13 01:42:10;;;;;;;16.38;8.38;;;12.60;93.50;;;;;;5008986;28;20076;-79
2022/10/13 01:44:39;;;;;;;15.23;8.98;;;12.60;93.60;;;;;;4992611;28;20050;-79
2022/10/13 01:47:08;;;;;;;15.18;8.55;;;12.70;93.60;;;;;;4992972;28;20439;-80
2022/10/13 01:49:37;;;;;;;17.58;9.23;;;12.60;93.70;;;;;;4993754;28;20101;-79
2022/10/13 01:52:11;;;;;;;14.10;8.88;;;12.60;93.70;;;;;;4992548;28;20081;-80
2022/10/13 01:54:36;;;;;;;17.33;8.50;;;12.70;93.80;;;;;;4992559;28;20033;-80
2022/10/13 01:57:02;;;;;;;17.75;8.95;;;12.70;93.80;;;;;;4993841;28;20386;-80
2022/10/13 01:59:32;;;;;;;15.80;9.52;;;12.70;93.80;;;;;;4992431;28;20023;-80
2022/10/13 02:02:06;;;;;;;17.75;10.23;;;12.70;93.90;;;;;;4993645;28;20030;-80
2022/10/13 02:04:47;;;;;;;15.45;9.20;;;12.70;93.90;;;;;;5008641;28;20025;-80
2022/10/13 02:07:34;;;;;;;15.32;8.80;;;12.80;94.00;;;;;;5008674;28;20062;-79
2022/10/13 02:10:16;;;;;;;19.33;9.70;;;12.80;94.00;;;;;;5012340;28;20030;-79
2022/10/13 02:12:49;;;;;;;16.63;9.52;;;12.80;94.00;;;;;;5029865;28;20136;-80
2022/10/13 02:15:20;;;;;;;18.77;8.70;;;12.80;94.00;;;;;;5015712;28;20026;-80
2022/10/13 02:17:45;;;;;;;19.33;9.52;;;12.80;93.90;;;;;;5015595;28;20100;-80
2022/10/13 02:20:13;;;;;;;17.80;9.30;;;12.80;93.90;;;;;;5015572;28;20057;-80
2022/10/13 02:22:45;;;;;;;18.75;9.45;;;12.80;93.90;;;;;;4999338;28;20474;-80
2022/10/13 02:25:11;;;;;;;13.05;8.20;;;12.80;93.90;;;;;;5015560;28;20377;-80
2022/10/13 02:27:36;;;;;;;18.02;9.38;;;12.90;94.00;;;;;;4999159;28;20034;-80
2022/10/13 02:30:04;;;;;;;16.55;9.68;;;12.90;94.00;;;;;;5015470;28;20437;-80
2022/10/13 02:32:29;;;;;;;15.70;8.88;;;12.80;94.00;;;;;;5018994;28;20512;-80
2022/10/13 02:34:55;;;;;;;15.52;8.70;;;12.90;94.00;;;;;;5034401;28;20021;-80
2022/10/13 02:37:24;;;;;;;20.60;9.07;;;12.90;94.00;;;;;;5035258;28;20032;-80
2022/10/13 02:39:49;;;;;;;18.75;9.70;;;12.90;94.00;;;;;;5035654;28;20374;-80
2022/10/13 02:42:15;;;;;;;15.27;8.73;;;12.90;94.10;;;;;;5035051;28;20029;-80
2022/10/13 02:44:41;;;;;;;17.27;9.18;;;12.90;94.10;;;;;;5035049;28;20026;-80
2022/10/13 02:47:06;;;;;;;17.08;8.52;;;12.90;94.10;;;;;;5034948;28;20109;-80
2022/10/13 02:49:32;;;;;;;15.88;8.75;;;12.90;94.10;;;;;;5034627;28;20026;-81
2022/10/13 02:51:57;;;;;;;15.52;9.20;;;12.90;94.10;;;;;;5051346;28;20375;-80
2022/10/13 02:54:23;;;;;;;18.52;9.20;;;13.00;94.10;;;;;;5051343;28;20080;-80
2022/10/13 02:56:49;;;;;;;15.27;9.32;;;13.00;94.10;;;;;;5035197;28;20029;-79
2022/10/13 02:59:14;;;;;;;17.33;8.20;;;12.90;94.10;;;;;;5048058;28;20049;-79
2022/10/13 03:01:40;;;;;;;20.15;9.55;;;12.90;94.00;;;;;;5023568;28;20470;-80
2022/10/13 03:04:10;;;;;;;17.48;9.65;;;12.90;94.00;;;;;;5014824;28;20474;-80
2022/10/13 03:06:36;;;;;;;16.25;8.80;;;12.90;94.10;;;;;;5015981;28;20030;-80
2022/10/13 03:09:02;;;;;;;15.77;8.60;;;12.90;94.30;;;;;;5014670;28;20029;-80
2022/10/13 03:11:28;;;;;;;17.65;9.77;;;12.90;94.10;;;;;;5014480;28;20077;-81
2022/10/13 03:13:54;;;;;;;22.10;10.07;;;12.90;94.10;;;;;;5014594;28;20030;-80
2022/10/13 03:16:19;;;;;;;16.95;8.60;;;12.90;94.10;;;;;;4998130;28;20030;-80
2022/10/13 03:18:45;;;;;;;17.80;9.23;;;12.90;94.10;;;;;;5014613;28;20113;-79
2022/10/13 03:21:11;;;;;;;15.40;8.88;;;12.90;94.10;;;;;;4997260;28;20037;-80
2022/10/13 03:23:36;;;;;;;18.02;8.80;;;12.90;94.10;;;;;;4999640;28;20418;-80
2022/10/13 03:26:03;;;;;;;18.98;9.48;;;12.90;94.10;;;;;;5017289;28;20033;-81
2022/10/13 03:28:29;;;;;;;18.48;9.35;;;12.90;94.10;;;;;;5034063;28;20038;-81
2022/10/13 03:31:07;;;;;;;19.80;9.60;;;12.90;94.20;;;;;;5034761;28;20029;-80
2022/10/13 03:33:33;;;;;;;18.70;9.65;;;13.00;94.20;;;;;;5035156;28;20032;-81
2022/10/13 03:36:04;;;;;;;17.90;9.77;;;13.00;94.20;;;;;;5050506;28;20025;-80
2022/10/13 03:38:31;;;;;;;16.55;9.63;;;13.00;94.10;;;;;;5050469;28;20030;-81
2022/10/13 03:40:57;;;;;;;16.35;9.32;;;12.90;94.20;;;;;;5048807;28;20100;-80
2022/10/13 03:43:23;;;;;;;20.98;10.27;;;13.00;94.20;;;;;;5041964;28;20029;-80
2022/10/13 03:45:59;;;;;;;14.90;9.13;;;13.00;94.20;;;;;;5034723;28;20033;-82
2022/10/13 03:48:26;;;;;;;20.88;10.00;;;12.90;94.20;;;;;;5050180;28;20114;-81
2022/10/13 03:50:52;;;;;;;18.15;9.02;;;13.00;94.30;;;;;;5033494;28;20025;-80
2022/10/13 03:53:17;;;;;;;16.67;7.65;;;12.90;94.30;;;;;;5033566;28;20108;-80
2022/10/13 03:55:51;;;;;;;14.52;9.25;;;12.90;94.30;;;;;;5033471;28;20025;-81
2022/10/13 03:58:17;;;;;;;22.73;10.73;;;12.90;94.50;;;;;;5050103;28;20036;-80
2022/10/13 04:00:44;;;;;;;20.63;9.13;;;13.00;94.40;;;;;;5033576;28;20033;-80
2022/10/13 04:03:12;;;;;;;16.63;8.98;;;13.00;94.40;;;;;;5033560;28;20033;-81
2022/10/13 04:05:37;;;;;;;21.10;9.68;;;12.90;94.40;;;;;;5033386;28;20029;-80
2022/10/13 04:08:04;;;;;;;22.88;9.25;;;13.00;94.50;;;;;;5033253;28;20044;-80
2022/10/13 04:10:29;;;;;;;19.77;10.52;;;13.00;94.70;;;;;;5033503;28;20136;-81
2022/10/13 04:12:55;;;;;;;20.05;9.43;;;13.00;94.70;;;;;;5016546;28;20128;-81
2022/10/13 04:15:20;;;;;;;20.27;10.43;;;13.00;94.60;;;;;;5034366;28;20537;-80
2022/10/13 04:17:46;;;;;;;19.77;10.25;;;13.00;94.70;;;;;;5033536;28;20588;-80
2022/10/13 04:20:12;;;;;;;19.98;9.38;;;13.00;94.70;;;;;;5033171;28;20064;-80
2022/10/13 04:22:38;;;;;;;19.38;9.70;;;13.00;94.80;;;;;;5033172;28;20061;-80
2022/10/13 04:25:04;;;;;;;20.60;9.73;;;13.00;94.80;;;;;;5049567;28;20030;-80
2022/10/13 04:27:31;;;;;;;18.05;10.20;;;13.00;94.80;;;;;;5049347;28;20037;-80
2022/10/13 04:29:57;;;;;;;16.50;9.38;;;13.00;94.80;;;;;;5034623;28;20025;-80
2022/10/13 04:32:22;;;;;;;18.58;8.93;;;12.90;94.80;;;;;;5049510;28;20075;-80
2022/10/13 04:34:48;;;;;;;16.67;9.80;;;12.90;94.80;;;;;;5032785;28;20453;-80
2022/10/13 04:37:14;;;;;;;19.33;9.38;;;12.90;94.80;;;;;;5032833;28;20480;-80
2022/10/13 04:39:39;;;;;;;17.13;10.23;;;13.00;94.80;;;;;;5032896;28;20435;-79
2022/10/13 04:42:05;;;;;;;18.42;10.45;;;13.00;95.00;;;;;;5032784;28;20064;-80
2022/10/13 04:44:31;;;;;;;16.92;9.10;;;13.00;94.90;;;;;;5033950;28;20036;-81
2022/10/13 04:46:57;;;;;;;15.98;9.48;;;13.00;94.80;;;;;;5049137;28;20030;-81
2022/10/13 04:49:23;;;;;;;18.88;9.68;;;12.90;94.90;;;;;;5032725;28;20029;-80
2022/10/13 04:51:49;;;;;;;16.40;9.70;;;12.90;95.00;;;;;;5032299;28;20036;-81
2022/10/13 04:54:15;;;;;;;21.35;9.60;;;12.90;95.00;;;;;;5032522;28;20026;-78
2022/10/13 04:56:42;;;;;;;17.85;10.15;;;12.90;95.40;;;;;;5032401;28;20021;-81
2022/10/13 04:59:08;;;;;;;22.92;9.80;;;12.90;95.10;;;;;;5032802;28;20497;-79
2022/10/13 05:01:34;;;;;;;21.30;10.25;;;12.90;95.20;;;;;;5048962;28;20033;-81
2022/10/13 05:04:02;;;;;;;15.15;9.30;;;12.90;95.10;;;;;;5032420;28;20043;-82
2022/10/13 05:06:30;;;;;;;16.60;9.40;;;12.90;95.20;;;;;;5032383;28;20072;-79
2022/10/13 05:08:56;;;;;;;18.52;9.30;;;12.90;95.20;;;;;;5048918;28;20060;-80
2022/10/13 05:11:25;;;;;;;20.75;10.00;;;12.90;95.20;;;;;;5013579;28;20458;-78
2022/10/13 05:13:51;;;;;;;20.23;9.73;;;12.90;95.30;;;;;;5032169;28;20120;-79
2022/10/13 05:16:19;;;;;;;15.93;9.45;;;12.90;95.30;;;;;;5032279;28;20528;-79
2022/10/13 05:18:46;;;;;;;15.43;8.48;;;12.90;95.30;;;;;;5048583;28;20029;-79
2022/10/13 05:21:17;;;;;;;21.52;9.18;;;12.90;95.30;;;;;;5033377;28;20030;-79
2022/10/13 05:23:44;;;;;;;15.80;8.88;;;12.80;95.30;;;;;;5033384;28;20040;-78
2022/10/13 05:26:13;;;;;;;18.75;9.60;;;12.90;95.30;;;;;;5032230;28;20036;-78
2022/10/13 05:28:39;;;;;;;15.60;9.95;;;13.00;95.40;;;;;;5048671;28;20395;-80
2022/10/13 05:31:14;;;;;;;18.52;8.93;;;13.00;95.50;;;;;;5048953;28;20079;-79
2022/10/13 05:33:41;;;;;;;17.63;8.82;;;13.00;95.60;;;;;;5032987;28;20029;-79
2022/10/13 05:36:09;;;;;;;17.85;10.05;;;13.00;95.70;;;;;;5048548;28;20022;-78
2022/10/13 05:38:35;;;;;;;17.05;9.57;;;13.00;95.70;;;;;;5031975;28;20049;-80
2022/10/13 05:41:05;;;;;;;15.68;8.75;;;13.00;95.70;;;;;;5031952;28;20481;-80
2022/10/13 05:43:34;;;;;;;20.40;10.48;;;13.00;95.80;;;;;;5033992;28;20033;-79
2022/10/13 05:46:00;;;;;;;17.00;9.07;;;13.00;95.80;;;;;;5036300;28;20026;-79
2022/10/13 05:48:26;;;;;;;13.73;8.45;;;13.10;95.80;;;;;;5052776;28;20032;-79
2022/10/13 05:50:54;;;;;;;18.95;9.43;;;13.00;95.70;;;;;;5052910;28;20362;-79
2022/10/13 05:53:22;;;;;;;17.92;9.40;;;13.10;95.80;;;;;;5037121;28;20029;-79
2022/10/13 05:55:49;;;;;;;16.33;8.70;;;13.10;95.70;;;;;;5052435;28;20350;-80
2022/10/13 05:58:15;;;;;;;16.83;8.60;;;13.10;95.70;;;;;;5035956;28;20450;-80
2022/10/13 06:00:42;;;;;;;17.20;9.02;;;13.10;95.70;;;;;;5037017;28;20035;-80
2022/10/13 06:03:13;;;;;;;15.82;8.60;;;13.10;95.80;;;;;;5036949;28;20025;-79
2022/10/13 06:05:42;;;;;;;18.42;10.55;;;13.10;95.80;;;;;;5036971;28;20048;-80
2022/10/13 06:08:08;;;;;;;14.73;8.43;;;13.10;95.80;;;;;;5052253;28;20060;-80
2022/10/13 06:10:35;;;;;;;17.63;8.68;;;13.20;95.80;;;;;;5035622;28;20038;-80
2022/10/13 06:13:01;;;;;;;17.65;9.75;;;13.20;95.80;;;;;;5055373;28;20029;-80
2022/10/13 06:15:26;;;;;;;18.13;9.63;;;13.20;95.80;;;;;;5038767;28;20534;-80
2022/10/13 06:17:52;;;;;;;16.45;8.93;;;13.20;95.90;;;;;;5021757;28;20036;-80
2022/10/13 06:20:18;;;;;;;12.63;8.45;;;13.20;95.90;;;;;;5021600;28;20037;-81
2022/10/13 06:22:43;;;;;;;16.08;9.68;;;13.20;96.00;;;;;;5020573;28;20470;-81
2022/10/13 06:25:09;;;;;;;14.45;8.50;;;13.20;96.00;;;;;;5002169;28;20033;-82
2022/10/13 06:27:35;;;;;;;16.02;9.07;;;13.30;96.00;;;;;;5035375;28;20037;-81
2022/10/13 06:30:00;;;;;;;19.63;9.55;;;13.20;96.00;;;;;;5018451;28;20033;-81
2022/10/13 06:32:26;;;;;;;16.67;8.40;;;13.30;96.20;;;;;;5035489;28;20025;-81
2022/10/13 06:34:52;;;;;;;20.38;9.80;;;13.30;96.00;;;;;;5018855;28;20417;-81
2022/10/13 06:37:18;;;;;;;20.00;9.93;;;13.40;96.00;;;;;;5018561;28;20033;-81
2022/10/13 06:39:43;;;;;;;16.90;8.85;;;13.30;96.00;;;;;;5036146;28;20097;-81
2022/10/13 06:42:09;;;;;;;17.48;9.05;;;13.30;96.00;;;;;;5018434;28;20065;-81
2022/10/13 06:44:35;;;;;;;14.25;8.57;;;13.30;96.00;;;;;;5018419;28;20454;-81
2022/10/13 06:47:02;;;;;;;18.85;9.18;;;13.30;96.10;;;;;;5018445;28;20029;-81
2022/10/13 06:49:28;;;;;;;18.00;10.18;;;13.30;96.10;;;;;;5035144;28;20029;-83
2022/10/13 06:51:53;;;;;;;21.35;10.02;;;13.40;96.20;;;;;;5018387;28;20037;-82
2022/10/13 06:54:19;;;;;;;18.10;9.82;;;13.40;96.10;;;;;;5017497;28;20030;-82
2022/10/13 06:56:44;;;;;;;19.10;9.90;;;13.40;96.20;;;;;;5001650;28;20421;-81
2022/10/13 06:59:10;;;;;;;15.57;9.75;;;13.40;96.20;;;;;;5034595;28;20040;-81
2022/10/13 07:01:36;;;;;;;19.52;10.32;;;13.40;96.20;;;;;;5020577;28;20056;-82
2022/10/13 07:04:02;;;;;;;15.60;9.60;;;13.40;96.30;;;;;;5034555;28;20068;-81
2022/10/13 07:06:28;;;;;;;15.63;9.52;;;13.40;96.30;;;;;;5018912;28;20026;-81
2022/10/13 07:08:53;;;;;;;16.92;9.88;;;13.50;96.40;;;;;;5034454;28;20079;-81
2022/10/13 07:11:19;;;;;;;18.73;9.48;;;13.40;96.40;;;;;;5034161;28;20042;-81
2022/10/13 07:13:45;;;;;;;20.83;9.73;;;13.50;96.60;;;;;;5034274;28;20029;-81
2022/10/13 07:16:10;;;;;;;15.23;9.65;;;13.50;96.60;;;;;;5036461;28;20037;-80
2022/10/13 07:18:37;;;;;;;21.30;9.75;;;13.50;96.70;;;;;;5053992;28;20373;-81
2022/10/13 07:21:03;;;;;;;18.15;10.45;;;13.50;96.60;;;;;;5037595;28;20052;-80
2022/10/13 07:23:29;;;;;;;24.58;9.57;;;13.50;96.60;;;;;;5037414;28;20039;-80
2022/10/13 07:25:56;;;;;;;19.05;10.23;;;13.50;96.60;;;;;;5037853;28;20444;-81
2022/10/13 07:28:25;;;;;;;18.80;10.93;;;13.50;96.90;;;;;;5037494;28;20029;-81
2022/10/13 07:30:51;;;;;;;21.75;10.27;;;13.50;96.60;;;;;;5055242;28;20364;-81
2022/10/13 07:33:18;;;;;;;16.73;9.05;;;13.60;96.60;;;;;;5037504;28;20120;-83
2022/10/13 07:35:44;;;;;;;18.35;9.23;;;13.60;96.60;;;;;;5053982;28;20107;-81
2022/10/13 07:38:10;;;;;;;18.08;9.73;;;13.60;96.60;;;;;;5050347;28;20061;-81
2022/10/13 07:40:37;;;;;;;15.90;9.80;;;13.60;96.70;;;;;;5050692;28;20473;-82
2022/10/13 07:43:05;;;;;;;17.38;9.63;;;13.60;96.60;;;;;;5037156;28;20029;-82
2022/10/13 07:45:30;;;;;;;17.27;10.77;;;13.60;96.60;;;;;;5037640;28;20112;-81
2022/10/13 07:47:56;;;;;;;21.05;10.30;;;13.60;96.70;;;;;;5020553;28;20129;-82
2022/10/13 07:50:22;;;;;;;17.45;10.10;;;13.70;96.70;;;;;;5053597;28;20072;-81
2022/10/13 07:52:48;;;;;;;18.08;10.02;;;13.70;96.70;;;;;;5053518;28;20065;-82
2022/10/13 07:55:13;;;;;;;23.17;10.35;;;13.70;96.70;;;;;;5054779;28;20353;-81
2022/10/13 07:57:39;;;;;;;21.25;11.30;;;13.70;96.70;;;;;;5036903;28;20028;-82
2022/10/13 08:00:05;;;;;;;22.75;12.18;;;13.70;96.70;;;;;;5037293;28;20025;-83
2022/10/13 08:02:31;;;;;;;19.67;11.32;;;13.70;96.60;;;;;;5054750;28;20028;-82
2022/10/13 08:04:57;;;;;;;17.92;11.13;;;13.70;96.60;;;;;;5037020;28;20037;-82
2022/10/13 08:07:23;;;;;;;18.30;11.05;;;13.70;96.60;;;;;;5036381;28;20035;-82
2022/10/13 08:09:48;;;;;;;18.92;10.77;;;13.80;96.60;;;;;;5020151;28;20025;-83
2022/10/13 08:12:14;;;;;;;18.17;10.57;;;13.80;96.50;;;;;;5020060;28;20454;-82
2022/10/13 08:14:40;;;;;;;19.55;10.15;;;13.90;96.50;;;;;;5036571;28;20017;-82
2022/10/13 08:17:06;;;;;;;15.77;9.95;;;13.90;96.50;;;;;;5020175;28;20035;-82
2022/10/13 08:19:32;;;;;;;19.33;9.98;;;13.90;96.50;;;;;;5030659;28;20124;-82
2022/10/13 08:21:57;;;;;;;13.90;9.60;;;14.00;96.50;;;;;;5017089;28;20040;-82
2022/10/13 08:24:23;;;;;;;17.00;10.80;;;14.00;96.50;;;;;;5033001;28;20474;-82
2022/10/13 08:26:49;;;;;;;23.80;10.48;;;14.10;96.50;;;;;;5016801;28;20033;-82
2022/10/13 08:29:16;;;;;;;15.40;9.63;;;14.10;96.40;;;;;;5033343;28;20056;-83
2022/10/13 08:31:42;;;;;;;21.48;10.65;;;14.20;96.40;;;;;;5034519;28;20474;-81
2022/10/13 08:34:09;;;;;;;15.85;10.10;;;14.30;96.40;;;;;;5016747;28;20083;-82
2022/10/13 08:36:35;;;;;;;21.50;9.88;;;14.30;96.30;;;;;;5032882;28;20466;-80
2022/10/13 08:39:01;;;;;;;22.15;11.48;;;14.30;96.20;;;;;;4999968;28;20030;-82
2022/10/13 08:41:31;;;;;;;18.15;10.57;;;14.40;96.10;;;;;;5016428;28;20041;-82
2022/10/13 08:44:07;;;;;;;20.30;12.32;;;14.40;96.30;;;;;;5032652;28;20030;-81
2022/10/13 08:46:58;;;;;;;20.10;11.57;;;14.40;95.90;;;;;;5033686;28;20038;-82
2022/10/13 08:49:24;;;;;;;22.63;11.13;;;14.40;95.70;;;;;;5032712;28;20108;-81
2022/10/13 08:51:50;;;;;;;23.15;12.30;;;14.50;95.70;;;;;;5032592;28;20442;-81
2022/10/13 08:54:20;;;;;;;23.20;12.77;;;14.40;95.50;;;;;;5016209;28;20075;-82
2022/10/13 08:56:49;;;;;;;22.77;12.10;;;14.50;95.50;;;;;;5032450;28;20060;-83
2022/10/13 08:59:17;;;;;;;20.73;11.30;;;14.50;95.40;;;;;;5016586;28;20030;-81
2022/10/13 09:01:50;;;;;;;16.50;9.93;;;14.50;95.40;;;;;;5016420;28;20037;-79
2022/10/13 09:04:30;;;;;;;21.38;10.98;;;14.50;95.40;;;;;;5017120;28;20034;-81
2022/10/13 09:07:11;;;;;;;18.15;10.57;;;14.50;95.30;;;;;;5032337;28;20068;-82
2022/10/13 09:09:37;;;;;;;19.27;10.70;;;14.60;95.30;;;;;;5032360;28;20025;-79
2022/10/13 09:12:04;;;;;;;15.57;9.63;;;14.70;95.30;;;;;;5032063;28;20037;-79
2022/10/13 09:14:35;;;;;;;20.88;10.73;;;14.80;95.30;;;;;;5032206;28;20030;-82
2022/10/13 09:17:17;;;;;;;14.93;8.98;;;15.00;95.40;;;;;;5032047;28;20385;-79
2022/10/13 09:19:45;;;;;;;16.13;9.45;;;15.20;95.40;;;;;;5031795;28;20021;-80
2022/10/13 09:22:27;;;;;;;15.30;9.05;;;15.30;95.20;;;;;;5016210;28;20053;-80
2022/10/13 09:25:09;;;;;;;13.85;8.73;;;15.50;95.10;;;;;;5032152;28;20044;-80
2022/10/13 09:27:58;;;;;;;16.70;9.70;;;15.70;94.90;;;;;;5033468;28;20034;-80
2022/10/13 09:30:37;;;;;;;16.98;10.13;;;15.70;94.60;;;;;;5015700;28;20614;-80
2022/10/13 09:33:11;;;;;;;17.90;9.60;;;15.80;94.10;;;;;;5032136;28;20535;-80
2022/10/13 09:35:39;;;;;;;18.38;9.18;;;15.80;94.00;;;;;;5032130;28;20112;-79
2022/10/13 09:38:09;;;;;;;18.42;9.88;;;15.80;93.80;;;;;;5015509;28;20025;-81
2022/10/13 09:40:36;;;;;;;19.40;9.75;;;15.90;93.50;;;;;;5032151;28;20371;-82
2022/10/13 09:43:22;;;;;;;18.27;8.90;;;15.90;93.30;;;;;;5015586;28;20025;-81
2022/10/13 09:45:48;;;;;;;19.75;9.75;;;16.00;93.20;;;;;;5015759;28;20385;-81
2022/10/13 09:48:22;;;;;;;18.20;9.25;;;16.00;93.00;;;;;;5033260;28;20026;-81
2022/10/13 09:50:50;;;;;;;18.33;8.57;;;16.00;92.80;;;;;;5015710;28;20026;-82
2022/10/13 09:53:24;;;;;;;16.60;8.80;;;16.00;92.70;;;;;;5015653;28;20389;-81
2022/10/13 09:56:09;;;;;;;13.80;7.70;;;16.10;92.70;;;;;;5033118;28;20025;-81
2022/10/13 09:58:44;;;;;;;18.35;8.32;;;16.10;92.50;;;;;;5031718;28;20105;-81
2022/10/13 10:01:20;;;;;;;16.23;9.63;;;16.20;92.40;;;;;;5031561;28;20025;-82
2022/10/13 10:03:48;;;;;;;15.95;8.55;;;16.20;92.20;;;;;;5017586;28;20025;-84
2022/10/13 10:06:15;;;;;;;15.73;9.38;;;16.30;92.20;;;;;;5034114;28;20108;-83
2022/10/13 10:09:15;;;;;;;15.23;9.05;;;16.30;91.90;;;;;;5016752;28;20030;-83
2022/10/13 10:11:46;;;;;;;23.42;10.13;;;16.30;91.80;;;;;;5033232;28;20068;-84
2022/10/13 10:14:16;;;;;;;19.25;9.68;;;16.40;91.70;;;;;;5034042;28;20116;-84
2022/10/13 10:16:46;;;;;;;15.05;9.35;;;16.50;91.90;;;;;;5033743;28;20033;-83
2022/10/13 10:19:24;;;;;;;18.67;9.40;;;16.40;91.50;;;;;;5033247;28;20024;-83
2022/10/13 10:22:05;;;;;;;15.50;8.32;;;16.40;91.70;;;;;;5037672;28;20022;-83
2022/10/13 10:24:37;;;;;;;23.15;9.38;;;16.50;91.30;;;;;;5035269;28;20051;-83
2022/10/13 10:27:10;;;;;;;18.52;8.15;;;16.50;91.10;;;;;;5034648;28;20116;-83
2022/10/13 10:29:35;;;;;;;20.92;8.68;;;16.40;91.00;;;;;;5035907;28;20386;-83
2022/10/13 10:32:14;;;;;;;19.08;9.45;;;16.40;90.90;;;;;;5037522;28;20032;-83
2022/10/13 10:35:10;;;;;;;15.77;9.10;;;16.40;90.90;;;;;;5038034;28;20026;-83
2022/10/13 10:38:14;;;;;;;20.30;9.35;;;16.30;90.90;;;;;;5037567;28;20041;-83
2022/10/13 10:40:54;;;;;;;13.10;7.90;;;16.20;90.80;;;;;;4979553;28;20101;-83
2022/10/13 10:43:37;;;;;;;19.05;7.88;;;16.20;90.80;;;;;;5034083;28;20295;-83
2022/10/13 10:46:11;;;;;;;17.13;8.20;;;16.20;90.90;;;;;;5043322;28;20022;-83
2022/10/13 10:48:38;;;;;;;13.07;7.97;;;16.30;91.00;;;;;;5037190;28;20055;-83
2022/10/13 10:51:08;;;;;;;16.75;8.68;;;16.30;90.90;;;;;;5038580;28;20025;-83
2022/10/13 10:53:42;;;;;;;17.02;8.95;;;16.30;90.90;;;;;;5036964;28;20014;-83
2022/10/13 10:56:23;;;;;;;14.77;7.88;;;16.30;90.90;;;;;;5038901;28;20021;-83
2022/10/13 10:59:07;;;;;;;23.10;9.48;;;16.30;90.80;;;;;;5039361;28;20021;-84
2022/10/13 11:01:42;;;;;;;;;;;16.30;90.80;;;;;;5036785;28;20041;-84
2022/10/13 11:04:47;;;;;;;17.55;8.68;;;16.30;90.90;;;;;;5039286;28;19905;-83
2022/10/13 11:07:33;;;;;;;16.70;9.82;;;16.10;90.80;;;;;;5035683;28;20017;-82
2022/10/13 11:09:58;;;;;;;17.15;9.52;;;16.00;90.90;;;;;;5037472;28;20029;-83
2022/10/13 11:12:43;;;;;;;18.83;9.27;;;16.00;91.00;;;;;;5036277;28;20045;-84
2022/10/13 11:15:12;;;;;;;23.00;10.07;;;15.90;91.30;;;;;;5048589;28;20029;-82
2022/10/13 11:17:39;;;;;;;17.48;9.85;;;15.80;91.90;;;;;;5043214;28;20048;-83
2022/10/13 11:20:20;;;;;;;21.02;10.88;;;15.70;92.30;;;;;;5043625;28;20445;-83
2022/10/13 11:22:58;;;;;;;17.27;10.57;;;15.60;92.80;;;;;;5056034;28;20457;-84
2022/10/13 11:25:40;;;;;;;20.35;13.05;;;15.50;93.20;;;;;;5054625;28;20469;-83
2022/10/13 11:28:21;;;;;;;19.63;11.77;;;15.40;93.70;;;;;;5055045;28;20116;-83
2022/10/13 11:30:49;;;;;;;23.45;13.15;;;15.30;93.90;;;;;;5054280;28;20025;-84
2022/10/13 11:33:37;;;;;;;20.90;13.00;;;15.20;94.20;;;;;;5054933;28;20074;-83
2022/10/13 11:36:27;;;;;;;23.85;14.10;;;15.10;94.60;;;;;;5054717;28;20029;-83
2022/10/13 11:39:00;;;;;;;23.20;11.98;;;15.10;94.80;;;;;;5054354;28;20089;-83
2022/10/13 11:41:35;;;;;;;19.75;12.80;;;15.10;95.00;;;;;;5036972;28;20072;-84
2022/10/13 11:44:18;;;;;;;20.25;12.65;;;15.00;95.20;;;;;;5037579;28;20032;-84
2022/10/13 11:47:12;;;;;;;24.75;12.27;;;15.00;95.50;;;;;;5055455;28;20037;-83
2022/10/13 11:50:07;;;;;;;21.90;12.30;;;15.00;95.40;;;;;;5054057;28;20067;-83
2022/10/13 11:52:58;;;;;;;21.65;10.82;;;15.00;95.70;;;;;;5007198;28;20029;-83
2022/10/13 11:55:49;;;;;;;20.77;12.65;;;15.00;95.60;;;;;;5037044;28;20461;-83
2022/10/13 11:58:27;;;;;;;21.38;12.75;;;15.00;95.70;;;;;;5037261;28;20120;-83
2022/10/13 12:00:59;;;;;;;24.00;12.82;;;15.00;95.70;;;;;;5037847;28;20025;-83
2022/10/13 12:03:31;;;;;;;23.10;12.13;;;15.00;95.80;;;;;;5038577;28;20017;-84
2022/10/13 12:06:03;;;;;;;20.10;12.55;;;15.00;95.90;;;;;;5037476;28;20021;-83
2022/10/13 12:08:31;;;;;;;21.20;11.80;;;15.00;95.90;;;;;;5036741;28;20020;-82
2022/10/13 12:10:58;;;;;;;21.88;12.38;;;15.00;95.90;;;;;;5036900;28;20053;-82
2022/10/13 12:13:27;;;;;;;19.02;11.63;;;15.00;96.10;;;;;;5020488;28;20048;-81
2022/10/13 12:15:59;;;;;;;19.88;11.82;;;15.00;96.10;;;;;;5054605;28;20025;-83
2022/10/13 12:18:26;;;;;;;18.20;11.48;;;15.00;96.20;;;;;;5055664;28;20025;-83
2022/10/13 12:20:57;;;;;;;21.73;13.05;;;15.10;96.20;;;;;;5054220;28;20029;-83
2022/10/13 12:23:24;;;;;;;16.33;10.93;;;15.10;96.20;;;;;;5036918;28;20033;-83
2022/10/13 12:25:56;;;;;;;19.50;10.30;;;15.10;96.20;;;;;;5036790;28;20025;-83
2022/10/13 12:28:24;;;;;;;18.80;11.63;;;15.00;96.10;;;;;;5054641;28;20017;-84
2022/10/13 12:30:52;;;;;;;16.45;10.50;;;15.10;96.20;;;;;;5036594;28;20385;-84
2022/10/13 12:33:30;;;;;;;18.10;10.95;;;15.10;96.30;;;;;;5036943;28;20535;-84
2022/10/13 12:36:11;;;;;;;19.25;10.80;;;15.10;96.40;;;;;;5036451;28;20480;-84
2022/10/13 12:38:38;;;;;;;16.92;10.00;;;15.10;96.40;;;;;;5054801;28;20023;-83
2022/10/13 12:41:04;;;;;;;18.30;11.13;;;15.10;96.50;;;;;;5036723;28;20025;-84
2022/10/13 12:43:30;;;;;;;17.95;10.70;;;15.10;96.40;;;;;;5020654;28;20040;-84
2022/10/13 12:45:55;;;;;;;20.17;10.75;;;15.10;96.40;;;;;;5036273;28;20029;-84
2022/10/13 12:48:33;;;;;;;16.25;9.73;;;15.20;96.50;;;;;;5020204;28;20029;-83
2022/10/13 12:51:28;;;;;;;18.70;9.88;;;15.10;96.40;;;;;;5054976;28;20095;-83